CheckWX is a tool to help pilots better visualize weather data.  It is not intended as a substitute for an official pre-flight weather briefing.

15:40:42 UTC

KGSP TAF
Greenville Spartanburg International Airport
Greer, South Carolina, USA
KGSP 221142Z 2212/2312 22006KT P6SM SCT090 FM221400 23008KT P6SM BKN120 FM222200 23008KT P6SM BKN050 FM230100 23004KT P6SM OVC050 PROB30 2302/2306 6SM -SHRA OVC025 FM230600 05003KT P6SM OVC030 PROB30 2306/2310 4SM -SHRA OVC015 FM231000 07005KT 6SM -SHRA BR OVC015

Nov-22@
12:00 UTC

Nov-22 @ 12:00 UTC

Nov-22@
14:00 UTC

Nov-22 @ 14:00 UTC

KGSP 221142Z 2212/2312 22006KT P6SM SCT090

Expired

Wind
  • 220° at 6 KTS
Cloud Levels
  • Scattered at 9,000' AGL

Nov-22@
14:00 UTC

Nov-22 @ 14:00 UTC

Nov-22@
22:00 UTC

Nov-22 @ 22:00 UTC

FM221400 23008KT P6SM BKN120

From

From Standard forecast or significant change

Wind
  • 230° at 8 KTS
Cloud Levels
  • Broken at 12,000' AGL

Nov-22@
22:00 UTC

Nov-22 @ 22:00 UTC

Nov-23@
01:00 UTC

Nov-23 @ 01:00 UTC

FM222200 23008KT P6SM BKN050

From

From Standard forecast or significant change

Wind
  • 230° at 8 KTS
Cloud Levels
  • Broken at 5,000' AGL

Nov-23@
01:00 UTC

Nov-23 @ 01:00 UTC

Nov-23@
06:00 UTC

Nov-23 @ 06:00 UTC

FM230100 23004KT P6SM OVC050

From

From Standard forecast or significant change

Wind
  • 230° at 4 KTS
Cloud Levels
  • Overcast at 5,000' AGL

Nov-23@
02:00 UTC

Nov-23 @ 02:00 UTC

Nov-23@
06:00 UTC

Nov-23 @ 06:00 UTC

PROB30 2302/2306 6SM -SHRA OVC025

Probable - 30% Likelihood

Probable - 30% Likelihood during this time.

Conditions
Light Rain
Cloud Levels
  • Overcast at 2,500' AGL

Nov-23@
06:00 UTC

Nov-23 @ 06:00 UTC

Nov-23@
10:00 UTC

Nov-23 @ 10:00 UTC

PROB30 2306/2310 4SM -SHRA OVC015

Probable - 30% Likelihood

Probable - 30% Likelihood during this time.

Conditions
Light Rain
Cloud Levels
  • Overcast at 1,500' AGL

Nov-23@
06:00 UTC

Nov-23 @ 06:00 UTC

Nov-23@
10:00 UTC

Nov-23 @ 10:00 UTC

FM230600 05003KT P6SM OVC030

From

From Standard forecast or significant change

Wind
  • 050° at 3 KTS
Cloud Levels
  • Overcast at 3,000' AGL

Nov-23@
10:00 UTC

Nov-23 @ 10:00 UTC

Nov-23@
12:00 UTC

Nov-23 @ 12:00 UTC

FM231000 07005KT 6SM -SHRA BR OVC015

From

From Standard forecast or significant change

Wind
  • 070° at 5 KTS
Conditions
Light Rain, Mist
Cloud Levels
  • Overcast at 1,500' AGL